createdAt,value
2022-08-16T00:02:33.578Z,13.35
2022-08-16T00:05:01.373Z,14.07
2022-08-16T00:07:29.765Z,17.88
2022-08-16T00:09:58.798Z,19.35
2022-08-16T00:12:28.370Z,21.38
2022-08-16T00:14:57.106Z,15.05
2022-08-16T00:19:55.142Z,15.88
2022-08-16T00:22:25.646Z,13.98
2022-08-16T00:24:55.529Z,15.18
2022-08-16T00:27:23.513Z,15.88
2022-08-16T00:30:00.525Z,14.45
2022-08-16T00:32:32.861Z,15.02
2022-08-16T00:35:00.622Z,14.85
2022-08-16T00:37:56.320Z,13.48
2022-08-16T00:40:34.531Z,13.98
2022-08-16T00:43:11.732Z,13.87
2022-08-16T00:46:01.338Z,13.93
2022-08-16T00:48:49.211Z,15.93
2022-08-16T00:51:17.975Z,14.13
2022-08-16T00:53:47.090Z,14.80
2022-08-16T00:56:57.113Z,14.02
2022-08-16T00:59:08.796Z,15.73
2022-08-16T01:01:36.096Z,13.88
2022-08-16T01:04:05.430Z,14.50
2022-08-16T01:06:49.542Z,14.57
2022-08-16T01:09:21.261Z,16.10
2022-08-16T01:11:53.766Z,15.57
2022-08-16T01:14:30.199Z,14.63
2022-08-16T01:17:12.125Z,14.93
2022-08-16T01:19:51.927Z,15.40
2022-08-16T01:22:56.169Z,15.45
2022-08-16T01:25:59.928Z,16.00
2022-08-16T01:28:45.570Z,15.85
2022-08-16T01:31:15.206Z,13.77
2022-08-16T01:33:44.553Z,15.07
2022-08-16T01:36:13.037Z,14.68
2022-08-16T01:38:48.988Z,16.17
2022-08-16T01:41:23.889Z,14.95
2022-08-16T01:43:54.587Z,14.80
2022-08-16T01:46:39.311Z,14.27
2022-08-16T01:49:22.615Z,16.00
2022-08-16T01:51:57.577Z,15.18
2022-08-16T01:54:47.799Z,14.25
2022-08-16T01:57:22.687Z,17.10
2022-08-16T01:59:50.320Z,14.07
2022-08-16T02:02:27.318Z,13.73
2022-08-16T02:04:59.175Z,17.02
2022-08-16T02:07:26.985Z,14.95
2022-08-16T02:09:57.318Z,13.48
2022-08-16T02:12:49.320Z,14.60
2022-08-16T02:15:25.400Z,13.40
2022-08-16T02:17:56.403Z,13.98
2022-08-16T02:20:26.153Z,13.32
2022-08-16T02:22:56.091Z,13.30
2022-08-16T02:25:24.004Z,12.85
2022-08-16T02:27:51.752Z,12.82
2022-08-16T02:30:36.625Z,13.95
2022-08-16T02:33:10.580Z,13.23
2022-08-16T02:35:54.499Z,13.80
2022-08-16T02:38:28.082Z,17.35
2022-08-16T02:40:56.751Z,18.58
2022-08-16T02:43:29.300Z,18.20
2022-08-16T02:46:03.110Z,16.77
2022-08-16T02:48:38.724Z,16.67
2022-08-16T02:51:10.742Z,18.63
2022-08-16T02:53:45.475Z,18.27
2022-08-16T02:56:16.134Z,20.08
2022-08-16T02:58:45.947Z,20.10
2022-08-16T03:01:24.634Z,23.15
2022-08-16T03:04:30.217Z,21.00
2022-08-16T03:06:56.716Z,22.40
2022-08-16T03:09:46.212Z,15.75
2022-08-16T03:12:19.418Z,15.95
2022-08-16T03:14:48.131Z,17.58
2022-08-16T03:17:17.911Z,20.00
2022-08-16T03:19:53.081Z,19.55
2022-08-16T03:22:30.922Z,17.45
2022-08-16T03:25:04.828Z,16.27
2022-08-16T03:27:35.951Z,18.75
2022-08-16T03:30:17.464Z,19.67
2022-08-16T03:32:51.768Z,19.98
2022-08-16T03:35:33.505Z,22.15
2022-08-16T03:38:32.839Z,21.08
2022-08-16T03:41:25.339Z,21.20
2022-08-16T03:43:58.370Z,15.25
2022-08-16T03:46:47.218Z,16.35
2022-08-16T03:49:20.376Z,18.42
2022-08-16T03:51:52.063Z,15.00
2022-08-16T03:54:28.423Z,16.05
2022-08-16T03:56:56.623Z,19.00
2022-08-16T03:59:29.312Z,15.80
2022-08-16T04:01:59.546Z,20.55
2022-08-16T04:04:32.998Z,17.63
2022-08-16T04:07:06.969Z,18.27
2022-08-16T04:09:38.075Z,17.38
2022-08-16T04:12:10.941Z,17.05
2022-08-16T04:14:54.826Z,15.80
2022-08-16T04:17:24.295Z,16.58
2022-08-16T04:19:54.919Z,15.68
2022-08-16T04:22:27.399Z,16.60
2022-08-16T04:24:59.469Z,17.08
2022-08-16T04:27:32.889Z,17.67
2022-08-16T04:30:04.495Z,15.48
2022-08-16T04:32:42.766Z,15.25
2022-08-16T04:35:18.938Z,17.98
2022-08-16T04:37:53.843Z,19.75
2022-08-16T04:40:28.119Z,24.50
2022-08-16T04:43:00.693Z,23.52
2022-08-16T04:45:35.993Z,23.20
2022-08-16T04:48:28.210Z,26.15
2022-08-16T04:51:02.095Z,25.25
2022-08-16T04:53:43.705Z,28.45
2022-08-16T04:56:11.266Z,32.88
2022-08-16T04:58:45.495Z,24.88
2022-08-16T05:01:15.778Z,25.02
2022-08-16T05:04:01.183Z,24.63
2022-08-16T05:06:45.108Z,20.25
2022-08-16T05:09:26.028Z,19.27
2022-08-16T05:11:57.370Z,19.42
2022-08-16T05:14:45.305Z,17.70
2022-08-16T05:17:14.570Z,22.88
2022-08-16T05:19:46.722Z,18.10
2022-08-16T05:22:28.485Z,21.60
2022-08-16T05:24:59.158Z,21.30
2022-08-16T05:27:26.479Z,18.23
2022-08-16T05:29:57.076Z,19.30
2022-08-16T05:32:32.987Z,19.80
2022-08-16T05:35:11.082Z,19.13
2022-08-16T05:37:45.095Z,18.25
2022-08-16T05:40:15.414Z,18.13
2022-08-16T05:42:47.709Z,20.83
2022-08-16T05:45:22.030Z,19.10
2022-08-16T05:47:59.483Z,20.67
2022-08-16T05:50:34.055Z,19.15
2022-08-16T05:53:02.096Z,19.83
2022-08-16T05:55:30.083Z,20.10
2022-08-16T05:57:57.527Z,19.27
2022-08-16T06:00:25.499Z,19.17
2022-08-16T06:02:57.821Z,19.10
2022-08-16T06:05:45.506Z,21.65
2022-08-16T06:08:32.353Z,18.90
2022-08-16T06:11:10.069Z,18.40
2022-08-16T06:13:42.256Z,20.65
2022-08-16T06:16:18.102Z,20.52
2022-08-16T06:18:47.903Z,19.52
2022-08-16T06:21:22.661Z,18.92
2022-08-16T06:23:55.899Z,17.30
2022-08-16T06:26:24.278Z,18.48
2022-08-16T06:29:04.342Z,17.40
2022-08-16T06:31:48.939Z,18.83
2022-08-16T06:34:55.803Z,18.38
2022-08-16T06:39:46.683Z,20.50
2022-08-16T06:42:27.713Z,17.77
2022-08-16T06:45:18.374Z,18.88
2022-08-16T06:47:53.270Z,17.30
2022-08-16T06:50:28.812Z,17.50
2022-08-16T06:53:06.811Z,16.35
2022-08-16T06:55:43.400Z,17.38
2022-08-16T06:58:22.011Z,15.90
2022-08-16T07:00:59.880Z,17.85
2022-08-16T07:03:32.569Z,16.08
2022-08-16T07:06:03.381Z,16.73
2022-08-16T07:08:38.049Z,14.43
2022-08-16T07:14:00.477Z,14.52
2022-08-16T07:16:27.877Z,14.15
2022-08-16T07:19:01.641Z,14.07
2022-08-16T07:21:46.222Z,12.40
2022-08-16T07:24:29.805Z,12.07
2022-08-16T07:27:08.392Z,11.85
2022-08-16T07:29:36.996Z,11.93
2022-08-16T07:32:08.979Z,14.00
2022-08-16T07:34:48.113Z,12.40
2022-08-16T07:37:16.875Z,11.63
2022-08-16T07:40:16.942Z,9.75
2022-08-16T07:42:45.566Z,10.88
2022-08-16T07:45:13.525Z,9.02
2022-08-16T07:47:51.233Z,10.73
2022-08-16T07:50:57.102Z,10.02
2022-08-16T07:53:07.020Z,9.45
2022-08-16T07:55:45.835Z,8.38
2022-08-16T07:58:18.051Z,8.52
2022-08-16T08:00:46.164Z,7.18
2022-08-16T08:03:13.450Z,7.25
2022-08-16T08:05:43.002Z,7.35
2022-08-16T08:08:11.841Z,6.78
2022-08-16T08:11:02.052Z,5.55
2022-08-16T08:13:42.273Z,4.60
2022-08-16T08:16:18.504Z,4.47
2022-08-16T08:18:56.142Z,3.92
2022-08-16T08:21:59.950Z,4.10
2022-08-16T08:24:16.918Z,3.65
2022-08-16T08:26:44.622Z,3.63
2022-08-16T08:29:23.022Z,3.80
2022-08-16T08:31:53.727Z,3.78
2022-08-16T08:34:22.273Z,3.53
2022-08-16T08:36:54.380Z,3.78
2022-08-16T08:39:34.809Z,3.95
2022-08-16T08:42:25.135Z,4.28
2022-08-16T08:44:54.975Z,3.63
2022-08-16T08:47:23.045Z,2.88
2022-08-16T08:49:55.338Z,4.43
2022-08-16T08:52:33.758Z,3.25
2022-08-16T08:55:15.237Z,3.10
2022-08-16T08:57:46.464Z,3.50
2022-08-16T09:00:51.318Z,4.00
2022-08-16T09:03:20.358Z,3.65
2022-08-16T09:05:51.761Z,3.35
2022-08-16T09:08:21.080Z,3.38
2022-08-16T09:11:02.266Z,3.90
2022-08-16T09:13:33.361Z,3.83
2022-08-16T09:16:01.015Z,4.10
2022-08-16T09:18:35.963Z,3.10
2022-08-16T09:21:09.464Z,3.75
2022-08-16T09:23:37.949Z,3.97
2022-08-16T09:26:44.964Z,3.50
2022-08-16T09:29:15.639Z,3.78
2022-08-16T09:31:43.445Z,3.58
2022-08-16T09:34:18.675Z,3.53
2022-08-16T09:36:46.602Z,3.42
2022-08-16T09:39:15.844Z,3.40
2022-08-16T09:41:54.224Z,3.60
2022-08-16T09:45:11.272Z,3.80
2022-08-16T09:47:12.986Z,4.03
2022-08-16T09:49:41.213Z,3.58
2022-08-16T09:52:09.840Z,3.55
2022-08-16T09:54:38.088Z,3.78
2022-08-16T09:57:05.384Z,3.63
2022-08-16T09:59:38.510Z,3.65
2022-08-16T10:02:26.212Z,3.97
2022-08-16T10:04:56.682Z,3.30
2022-08-16T10:07:25.786Z,3.40
2022-08-16T10:09:55.355Z,3.97
2022-08-16T10:12:46.585Z,3.80
2022-08-16T10:15:22.963Z,3.35
2022-08-16T10:18:01.562Z,3.00
2022-08-16T10:20:34.089Z,3.53
2022-08-16T10:23:07.071Z,3.17
2022-08-16T10:27:16.309Z,3.17
2022-08-16T10:28:28.941Z,3.70
2022-08-16T10:30:59.305Z,3.50
2022-08-16T10:33:29.289Z,3.33
2022-08-16T10:36:02.583Z,3.22
2022-08-16T10:38:30.251Z,3.50
2022-08-16T10:41:01.277Z,4.30
2022-08-16T10:43:31.331Z,3.85
2022-08-16T10:46:00.900Z,4.20
2022-08-16T10:48:29.348Z,4.40
2022-08-16T10:50:59.032Z,4.45
2022-08-16T10:53:32.762Z,4.35
2022-08-16T10:56:55.303Z,5.10
2022-08-16T10:58:53.505Z,4.45
2022-08-16T11:01:43.074Z,3.72
2022-08-16T11:05:04.521Z,6.05
2022-08-16T11:09:44.227Z,3.75
2022-08-16T11:12:14.757Z,4.65
2022-08-16T11:15:11.267Z,3.42
2022-08-16T11:17:32.562Z,3.90
2022-08-16T11:20:36.767Z,3.63
2022-08-16T11:22:48.669Z,3.20
2022-08-16T11:28:10.719Z,4.22
2022-08-16T11:30:38.861Z,4.30
2022-08-16T11:33:07.838Z,7.15
2022-08-16T11:38:51.894Z,4.15
2022-08-16T11:43:40.706Z,4.57
2022-08-16T11:46:45.345Z,6.10
2022-08-16T11:49:01.879Z,4.28
2022-08-16T11:51:28.873Z,3.75
2022-08-16T11:53:56.444Z,4.03
2022-08-16T11:56:40.029Z,3.80
2022-08-16T11:59:10.858Z,3.85
2022-08-16T12:01:44.162Z,4.53
2022-08-16T12:04:23.242Z,5.00
2022-08-16T12:06:53.709Z,4.18
2022-08-16T12:09:22.208Z,4.43
2022-08-16T12:11:50.136Z,4.20
2022-08-16T12:14:22.984Z,3.90
2022-08-16T12:16:55.510Z,3.63
2022-08-16T12:19:33.619Z,2.85
2022-08-16T12:22:01.254Z,2.53
2022-08-16T12:24:33.127Z,3.50
2022-08-16T12:27:01.164Z,2.40
2022-08-16T12:32:01.608Z,8.00
2022-08-16T12:34:48.050Z,3.55
2022-08-16T12:37:19.701Z,3.40
2022-08-16T12:39:50.834Z,3.13
2022-08-16T12:42:20.391Z,3.88
2022-08-16T12:44:49.294Z,4.28
2022-08-16T12:47:37.694Z,4.45
2022-08-16T12:50:10.502Z,4.07
2022-08-16T12:52:44.392Z,3.90
2022-08-16T12:55:20.358Z,2.80
2022-08-16T12:57:58.173Z,3.55
2022-08-16T13:00:33.087Z,3.67
2022-08-16T13:03:03.121Z,4.13
2022-08-16T13:05:42.930Z,4.47
2022-08-16T13:08:20.769Z,5.35
2022-08-16T13:10:52.554Z,5.00
2022-08-16T13:13:25.097Z,2.75
2022-08-16T13:16:03.647Z,3.70
2022-08-16T13:18:35.366Z,2.97
2022-08-16T13:21:07.943Z,3.38
2022-08-16T13:23:43.564Z,2.08
2022-08-16T13:26:11.324Z,1.95
2022-08-16T13:28:38.383Z,1.53
2022-08-16T13:31:05.769Z,1.80
2022-08-16T13:33:37.252Z,1.65
2022-08-16T13:36:16.757Z,1.50
2022-08-16T13:38:53.201Z,1.60
2022-08-16T13:41:21.660Z,1.48
2022-08-16T13:43:59.160Z,1.48
2022-08-16T13:46:27.337Z,1.52
2022-08-16T13:48:56.235Z,1.52
2022-08-16T13:51:25.295Z,1.70
2022-08-16T13:54:03.311Z,2.03
2022-08-16T13:56:38.849Z,2.00
2022-08-16T13:59:20.575Z,1.83
2022-08-16T14:01:55.388Z,0.90
2022-08-16T14:04:26.335Z,1.50
2022-08-16T14:06:55.431Z,1.70
2022-08-16T14:09:24.037Z,1.45
2022-08-16T14:11:53.326Z,1.00
2022-08-16T14:14:29.159Z,1.30
2022-08-16T14:16:58.268Z,1.40
2022-08-16T14:19:26.494Z,1.52
2022-08-16T14:22:13.989Z,1.65
2022-08-16T14:24:45.281Z,1.85
2022-08-16T14:27:26.438Z,1.20
2022-08-16T14:30:11.516Z,1.62
2022-08-16T14:32:43.534Z,2.03
2022-08-16T14:35:16.900Z,1.98
2022-08-16T14:37:44.004Z,2.00
2022-08-16T14:40:13.966Z,2.63
2022-08-16T14:42:44.076Z,2.50
2022-08-16T14:45:14.449Z,2.03
2022-08-16T14:47:41.518Z,1.75
2022-08-16T14:50:13.721Z,1.67
2022-08-16T14:52:56.129Z,2.10
2022-08-16T14:55:27.561Z,1.67
2022-08-16T14:57:55.211Z,2.03
2022-08-16T15:00:33.232Z,1.63
2022-08-16T15:03:09.588Z,2.33
2022-08-16T15:05:39.180Z,1.27
2022-08-16T15:08:06.199Z,1.30
2022-08-16T15:10:34.815Z,2.05
2022-08-16T15:13:09.564Z,1.73
2022-08-16T15:15:38.145Z,1.70
2022-08-16T15:20:38.915Z,1.60
2022-08-16T15:23:08.546Z,1.48
2022-08-16T15:25:59.741Z,1.48
2022-08-16T15:28:32.588Z,1.50
2022-08-16T15:31:06.278Z,1.40
2022-08-16T15:33:42.702Z,1.73
2022-08-16T15:38:56.291Z,2.13
2022-08-16T15:41:33.372Z,1.63
2022-08-16T15:44:05.294Z,2.10
2022-08-16T15:46:56.292Z,2.45
2022-08-16T15:49:37.252Z,2.20
2022-08-16T15:52:33.862Z,2.17
2022-08-16T15:55:07.455Z,2.90
2022-08-16T15:57:41.626Z,2.00
2022-08-16T16:00:14.689Z,2.45
2022-08-16T16:02:43.253Z,2.38
2022-08-16T16:05:10.820Z,2.30
2022-08-16T16:07:40.824Z,2.40
2022-08-16T16:10:13.287Z,2.75
2022-08-16T16:12:53.670Z,2.38
2022-08-16T16:15:25.396Z,2.25
2022-08-16T16:17:54.098Z,2.67
2022-08-16T16:20:24.495Z,2.92
2022-08-16T16:22:57.672Z,2.30
2022-08-16T16:25:25.299Z,2.45
2022-08-16T16:27:59.229Z,2.40
2022-08-16T16:30:38.292Z,2.58
2022-08-16T16:33:21.048Z,3.05
2022-08-16T16:35:55.680Z,3.40
2022-08-16T16:38:31.026Z,3.10
2022-08-16T16:41:09.934Z,3.38
2022-08-16T16:43:43.588Z,2.65
2022-08-16T16:46:40.587Z,3.00
2022-08-16T16:49:04.050Z,3.28
2022-08-16T16:51:32.202Z,3.13
2022-08-16T16:54:09.520Z,2.95
2022-08-16T16:56:40.499Z,2.42
2022-08-16T16:59:20.154Z,2.72
2022-08-16T17:02:00.314Z,2.70
2022-08-16T17:04:36.999Z,4.07
2022-08-16T17:07:07.768Z,4.15
2022-08-16T17:09:39.452Z,4.07
2022-08-16T17:12:08.028Z,3.65
2022-08-16T17:14:35.920Z,3.92
2022-08-16T17:17:08.583Z,3.95
2022-08-16T17:19:40.244Z,4.18
2022-08-16T17:22:15.216Z,4.18
2022-08-16T17:24:44.802Z,3.78
2022-08-16T17:27:17.759Z,4.97
2022-08-16T17:29:51.595Z,4.70
2022-08-16T17:32:33.829Z,3.90
2022-08-16T17:35:18.443Z,4.50
2022-08-16T17:37:51.972Z,5.57
2022-08-16T17:40:40.517Z,6.60
2022-08-16T17:43:14.946Z,5.50
2022-08-16T17:45:42.965Z,4.72
2022-08-16T17:48:10.085Z,4.22
2022-08-16T17:50:37.668Z,3.10
2022-08-16T17:53:07.520Z,3.85
2022-08-16T17:55:37.565Z,3.78
2022-08-16T17:58:21.270Z,3.88
2022-08-16T18:00:52.353Z,4.25
2022-08-16T18:04:02.624Z,4.00
2022-08-16T18:06:13.390Z,4.00
2022-08-16T18:08:42.697Z,4.28
2022-08-16T18:11:10.648Z,5.45
2022-08-16T18:13:43.306Z,5.38
2022-08-16T18:16:11.720Z,5.43
2022-08-16T18:18:38.723Z,5.45
2022-08-16T18:21:24.592Z,7.20
2022-08-16T18:23:51.707Z,6.90
2022-08-16T18:26:18.765Z,5.63
2022-08-16T18:28:45.752Z,9.50
2022-08-16T18:31:12.824Z,6.80
2022-08-16T18:33:43.855Z,7.70
2022-08-16T18:36:20.618Z,14.23
2022-08-16T18:38:50.125Z,5.95
2022-08-16T18:41:18.312Z,5.68
2022-08-16T18:44:22.256Z,6.03
2022-08-16T18:46:32.391Z,6.28
2022-08-16T18:48:59.342Z,6.10
2022-08-16T18:51:26.277Z,10.75
2022-08-16T18:53:53.648Z,40.47
2022-08-16T18:56:20.724Z,12.38
2022-08-16T18:58:47.647Z,8.45
2022-08-16T19:01:14.996Z,4.75
2022-08-16T19:03:42.202Z,5.43
2022-08-16T19:06:13.821Z,4.53
2022-08-16T19:08:44.046Z,4.32
2022-08-16T19:11:14.163Z,4.60
2022-08-16T19:13:44.507Z,4.35
2022-08-16T19:16:13.684Z,6.35
2022-08-16T19:18:41.735Z,5.30
2022-08-16T19:21:14.759Z,4.65
2022-08-16T19:23:43.634Z,4.05
2022-08-16T19:26:26.056Z,5.10
2022-08-16T19:28:59.877Z,4.20
2022-08-16T19:31:35.504Z,4.10
2022-08-16T19:34:04.325Z,4.55
2022-08-16T19:36:37.200Z,5.45
2022-08-16T19:39:22.730Z,6.60
2022-08-16T19:41:53.636Z,7.28
2022-08-16T19:44:22.563Z,7.60
2022-08-16T19:46:50.132Z,7.30
2022-08-16T19:49:17.621Z,6.38
2022-08-16T19:51:45.809Z,5.60
2022-08-16T19:54:12.909Z,5.20
2022-08-16T19:56:39.947Z,4.00
2022-08-16T19:59:40.418Z,3.50
2022-08-16T20:01:54.032Z,3.95
2022-08-16T20:04:22.854Z,3.08
2022-08-16T20:06:52.492Z,3.33
2022-08-16T20:09:20.790Z,2.75
2022-08-16T20:11:48.927Z,3.10
2022-08-16T20:14:24.044Z,2.35
2022-08-16T20:16:55.089Z,2.67
2022-08-16T20:19:22.040Z,2.63
2022-08-16T20:21:48.919Z,9.63
2022-08-16T20:24:33.517Z,2.90
2022-08-16T20:27:06.292Z,2.80
2022-08-16T20:29:33.811Z,2.72
2022-08-16T20:32:00.795Z,3.03
2022-08-16T20:34:27.660Z,3.75
2022-08-16T20:36:54.553Z,2.35
2022-08-16T20:39:23.480Z,4.07
2022-08-16T20:41:50.504Z,3.08
2022-08-16T20:44:17.788Z,2.95
2022-08-16T20:46:50.308Z,2.70
2022-08-16T20:49:17.165Z,3.20
2022-08-16T20:51:49.058Z,3.97
2022-08-16T20:54:17.021Z,3.40
2022-08-16T20:56:43.915Z,2.75
2022-08-16T20:59:10.896Z,2.50
2022-08-16T21:01:46.531Z,2.90
2022-08-16T21:04:23.571Z,2.97
2022-08-16T21:06:54.085Z,2.63
2022-08-16T21:09:33.746Z,2.22
2022-08-16T21:12:11.510Z,2.80
2022-08-16T21:14:43.051Z,2.97
2022-08-16T21:17:11.564Z,2.90
2022-08-16T21:19:38.959Z,2.80
2022-08-16T21:22:18.427Z,3.88
2022-08-16T21:24:46.821Z,2.92
2022-08-16T21:27:15.463Z,3.10
2022-08-16T21:29:46.127Z,10.13
2022-08-16T21:32:17.848Z,2.60
2022-08-16T21:34:44.904Z,14.18
2022-08-16T21:37:12.356Z,3.53
2022-08-16T21:39:43.269Z,3.03
2022-08-16T21:42:15.020Z,5.78
2022-08-16T21:44:42.407Z,2.63
2022-08-16T21:47:09.429Z,2.72
2022-08-16T21:49:37.425Z,3.28
2022-08-16T21:52:06.460Z,2.80
2022-08-16T21:54:33.564Z,3.47
2022-08-16T21:57:00.529Z,3.20
2022-08-16T21:59:27.641Z,2.72
2022-08-16T22:04:37.316Z,3.20
2022-08-16T22:07:06.091Z,3.17
2022-08-16T22:09:33.206Z,3.15
2022-08-16T22:12:00.156Z,3.70
2022-08-16T22:14:27.161Z,3.50
2022-08-16T22:16:54.187Z,3.65
2022-08-16T22:19:25.675Z,2.72
2022-08-16T22:21:52.981Z,3.38
2022-08-16T22:24:19.871Z,3.58
2022-08-16T22:26:46.772Z,3.88
2022-08-16T22:29:15.254Z,3.90
2022-08-16T22:31:44.104Z,3.88
2022-08-16T22:36:39.131Z,3.90
2022-08-16T22:39:10.552Z,3.63
2022-08-16T22:41:39.248Z,2.95
2022-08-16T22:44:07.609Z,4.18
2022-08-16T22:46:36.818Z,3.78
2022-08-16T22:49:05.201Z,3.92
2022-08-16T22:51:32.155Z,3.88
2022-08-16T22:53:59.144Z,4.95
2022-08-16T22:56:26.339Z,4.88
2022-08-16T22:58:53.878Z,4.55
2022-08-16T23:01:23.285Z,4.38
2022-08-16T23:03:51.185Z,3.70
2022-08-16T23:06:18.218Z,5.68
2022-08-16T23:08:45.254Z,5.60
2022-08-16T23:11:23.402Z,4.18
2022-08-16T23:13:55.388Z,4.00
2022-08-16T23:16:33.471Z,4.15
2022-08-16T23:19:03.452Z,3.70
2022-08-16T23:21:31.287Z,4.85
2022-08-16T23:23:58.449Z,4.32
2022-08-16T23:26:44.673Z,3.50
2022-08-16T23:29:22.279Z,3.22
2022-08-16T23:31:59.648Z,3.92
2022-08-16T23:34:29.749Z,3.95
2022-08-16T23:36:57.195Z,3.65
2022-08-16T23:39:24.863Z,3.00
2022-08-16T23:41:52.566Z,4.18
2022-08-16T23:44:55.886Z,4.88
2022-08-16T23:47:06.650Z,3.92
2022-08-16T23:49:57.072Z,4.10
2022-08-16T23:52:53.298Z,4.40
2022-08-16T23:55:08.579Z,4.60
2022-08-16T23:57:35.525Z,4.25
